Airfield :







YOU CAN JOIN US ON...

 
LOGIN :

Register | Disclaimer

   EN    FR    IT 

 









Legend :    VFR   Marginal VFR   IFR   Intensive IFR   Very Intensive IFR
Visi :
Ceiling :
>= 8 km
>= 3000ft
5 to 8 km
1000 to 3000 ft
1500m to 5 km
500 to 1000 ft
800 to 1500m
200 to 500 ft
< 800m
< 200 ft
Symbols :   Thunderstorms  Fog  Heavy snow  Heavy precipitations  Wind > 20 kt






- Airport Elevation : 74 ft
- IATA code : PMV


SVMG - Del Caribe Int. Gen Santiago M

CURRENT METAR :
  • 260102Z AUTO 09008KT NCD 31/23 Q1013

EXPIRED METARs :
  • 260002Z AUTO 09011KT NCD 31/74 Q1012
  • 252302Z AUTO 09011KT NCD 28/22 Q1012
  • 252300Z /////KT 9999 SCT010 29/24 Q1013 NOSIG

TAF TAF SVMG
Valid from the 26 at 00:00 until the 27 at 00:00 UTC


252200Z 2600/2700 09014KT 9999 SCT010 TX32/19Z TN24/09Z
BECMG 2600/2604 08011KT SCT080



MET'MAP, your aeronautical weather chart ! - Copyright ORBIFLY December 2007 - Disclaimer

ORBIFLY MET'MAP TEAM :

Programming & Development : Alexandra Zaïnal
Concept & original design : Baudouin d'Aumeries
Assistance for programming : Marc-Olivier Méhu
Technical & hardware support : Manuel Goepfert

Contact : metmap@orbifly.com




SOURCES & CREDITS :

   NOAA